Tiempo atmosférico en la estación meteorológica de Castello d?Empuries, Girona (4 m.)



Fecha
DESCASC
Temp. máxima en grados centígrados (hora)
DESCASC
Temp. mínima en grados centígrados (hora)
DESCASC
Temp. media en grados centígrados
DESCASC
Racha de viento máxima en m/sg (hora)
DESCASC
Velocidad máxima media en intervalos de 10 minutos(hora)
DESCASC
Precipitaciones diarias en mm
DESCASC
Precipitaciones de 00:00 a 06:00 en mm
DESCASC
Precipitaciones de 06:00 a 12:00 en mm
DESCASC
Precipitaciones de 12:00 a 18:00 en mm
DESCASC
Precipitaciones de 18:00 a 24:00 en mm
DESCASC

Gráficas

Temp. máximas Temp. mínimas Temp. medias Precipitaciones Rachas de viento máximas Velocidades máximas media en intervalos de 10 minutos

Datos horarios

Fecha y hora oficial Temperatura (ºC) Velocidad del viento (km/h) Dirección del viento Racha (km/h) Dirección de racha Precipitación (mm) Presión (hPa) Tendencia (hPa) Humedad (%)
2018-01-20 23:00:00 6.9 5 Oeste 8 Sudoeste 0 -- -- 96
2018-01-20 22:00:00 7.9 4 Oeste 13 Noroeste 0 -- -- 95
2018-01-20 21:00:00 7.8 5 Oeste 8 Noroeste 0 -- -- 97
2018-01-20 20:00:00 8 0 Calma -- -- 0 -- -- 95
2018-01-20 19:00:00 9.1 0 Calma -- -- 0 -- -- 89
2018-01-20 18:00:00 10.7 3 Noroeste 7 Norte 0 -- -- 83
2018-01-20 17:00:00 12.1 0 Calma 6 Nordeste 0 -- -- 76
2018-01-20 16:00:00 12.4 0 Calma 8 Sudeste 0 -- -- 76
2018-01-20 15:00:00 11.7 5 Sudeste 8 Este 0 -- -- 79
2018-01-20 14:00:00 11.7 5 Nordeste 9 Norte 0 -- -- 76
2018-01-20 13:00:00 11.1 3 Norte 10 Oeste 0 -- -- 77
2018-01-20 12:00:00 9.2 3 Sudoeste 10 Sur 0 -- -- 84
2018-01-20 11:00:00 7.8 4 Oeste 10 Sudoeste 0 -- -- 88
2018-01-20 10:00:00 6 4 Noroeste 9 Norte 0 -- -- 93
2018-01-20 09:00:00 4 3 Sudoeste 6 Sudoeste 0 -- -- 99
2018-01-20 08:00:00 4.4 3 Sudoeste 9 Sudoeste 0 -- -- 91
2018-01-20 07:00:00 6.2 6 Sudoeste 11 Sudoeste 0 -- -- 85
2018-01-20 06:00:00 7.6 5 Oeste 10 Sudoeste 0 -- -- 80
2018-01-20 05:00:00 8.1 4 Oeste 21 Noroeste 0 -- -- 76
2018-01-20 04:00:00 9.3 13 Noroeste 25 Norte 0 -- -- 73
2018-01-20 03:00:00 7.4 4 Oeste 12 Oeste 0 -- -- 88
2018-01-20 02:00:00 7.3 5 Oeste 12 Norte 0 -- -- 89
2018-01-20 01:00:00 6.5 4 Oeste 9 Oeste 0 -- -- 95
2018-01-20 00:00:00 5.6 5 Noroeste 9 Sudoeste 0 -- -- 98
2018-01-19 23:00:00 5.7 5 Noroeste 7 Noroeste 0 -- -- 95
2018-01-19 22:00:00 7.3 4 Sudoeste 9 Noroeste 0 -- -- 91
2018-01-19 21:00:00 9 6 Noroeste 9 Noroeste 0 -- -- 85
2018-01-19 20:00:00 9.6 6 Norte 10 Norte 0 -- -- 90
2018-01-19 19:00:00 9.2 5 Este 9 Nordeste 0 -- -- 85
2018-01-19 18:00:00 11.5 3 Sudeste 11 Sur 0 -- -- 76
2018-01-19 17:00:00 14.5 6 Sur 14 Sur 0 -- -- 66
2018-01-19 16:00:00 17.3 4 Sur 10 Sur 0 -- -- 55
2018-01-19 15:00:00 16.7 8 Sudeste 13 Sudeste 0 -- -- 56
2018-01-19 14:00:00 14.3 3 Sur 9 Nordeste 0 -- -- 64
2018-01-19 13:00:00 10.6 3 Oeste 6 Oeste 0 -- -- 83
2018-01-19 12:00:00 7.1 5 Sudoeste 9 Sudoeste 0 -- -- 97
2018-01-19 11:00:00 4.5 0 Calma 9 Oeste 0 -- -- 100
2018-01-19 10:00:00 2.6 4 Oeste 6 Oeste 0 -- -- 100
2018-01-19 09:00:00 1.2 3 Noroeste 6 Noroeste 0 -- -- 100
2018-01-19 08:00:00 1.1 0 Calma 6 Noroeste 0 -- -- 100
2018-01-19 07:00:00 1.6 4 Oeste 11 Sudoeste 0 -- -- 100
2018-01-19 06:00:00 1.6 4 Oeste 6 Sudoeste 0 -- -- 100
2018-01-19 05:00:00 2 3 Nordeste 7 Sudoeste 0 -- -- 100
2018-01-19 04:00:00 3.1 4 Sudoeste 12 Oeste 0 -- -- 100
2018-01-19 03:00:00 3 5 Oeste 8 Oeste 0 -- -- 100
2018-01-19 02:00:00 3.5 5 Noroeste 8 Oeste 0 -- -- 100
2018-01-19 01:00:00 3.9 5 Oeste 8 Noroeste 0 -- -- 100
2018-01-19 00:00:00 4.4 3 Oeste 8 Oeste 0 -- -- 100
2018-01-18 23:00:00 4.8 5 Oeste 9 Oeste 0 -- -- 100
2018-01-18 22:00:00 5.6 5 Noroeste 9 Oeste 0 -- -- 100
2018-01-18 21:00:00 6.5 3 Noroeste 6 Noroeste 0 -- -- 99
2018-01-18 20:00:00 7.5 5 Noroeste 8 Oeste 0 -- -- 99
2018-01-18 19:00:00 8.4 0 Calma 6 Sudeste 0 -- -- 94
2018-01-18 18:00:00 10.1 5 Sudeste 10 Sudeste 0 -- -- 89
2018-01-18 17:00:00 11.9 5 Este 13 Este 0 -- -- 84
2018-01-18 16:00:00 14.2 8 Sudeste 14 Sudeste 0 -- -- 73
2018-01-18 15:00:00 14.1 6 Sudeste 13 Este 0 -- -- 74
2018-01-18 14:00:00 13.6 7 Este 12 Sudeste 0 -- -- 73
2018-01-18 13:00:00 11.3 3 Norte 6 Norte 0 -- -- 73
2018-01-18 12:00:00 8.5 0 Calma 5 Noroeste 0 -- -- 79
2018-01-18 11:00:00 7.2 2 Noroeste 6 Oeste 0 -- -- 85
2018-01-18 10:00:00 5.9 3 Oeste 10 Noroeste 0 -- -- 87
2018-01-18 09:00:00 5.1 4 Oeste 8 Oeste 0 -- -- 92
2018-01-18 08:00:00 4.8 5 Oeste 9 Oeste 0 -- -- 91
2018-01-18 07:00:00 4.7 4 Oeste 8 Oeste 0 -- -- 91
2018-01-18 06:00:00 4.3 4 Noroeste 9 Oeste 0 -- -- 93
2018-01-18 05:00:00 3.9 3 Noroeste 7 Oeste 0 -- -- 92
2018-01-18 04:00:00 4.1 5 Oeste 8 Sudoeste 0 -- -- 92
2018-01-18 03:00:00 4.9 3 Oeste 10 Oeste 0 -- -- 86
2018-01-18 02:00:00 5.9 5 Oeste 10 Oeste 0 -- -- 82
2018-01-18 01:00:00 7 5 Oeste 10 Oeste 0 -- -- 77
2018-01-18 00:00:00 9.1 3 Sur 10 Noroeste 0 -- -- 69
2018-01-17 23:00:00 11 6 Noroeste 19 Noroeste 0 -- -- 62
2018-01-17 22:00:00 11.4 11 Noroeste 22 Norte 0 -- -- 59
2018-01-17 21:00:00 11.5 13 Norte 23 Noroeste 0 -- -- 62
2018-01-17 20:00:00 11.3 10 Norte 31 Norte 0 -- -- 61
2018-01-17 19:00:00 11.6 14 Norte 28 Norte 0 -- -- 58
2018-01-17 18:00:00 12.2 17 Norte 31 Norte 0 -- -- 51
2018-01-17 17:00:00 13 16 Norte 38 Noroeste 0 -- -- 52
2018-01-17 16:00:00 14.1 24 Norte 44 Noroeste 0 -- -- 54
2018-01-17 15:00:00 13.7 23 Norte 49 Norte 0 -- -- 55
2018-01-17 14:00:00 14.6 26 Noroeste 50 Norte 0 -- -- 50
2018-01-17 13:00:00 14.9 22 Norte 49 Norte 0 -- -- 54
2018-01-17 12:00:00 13.8 26 Noroeste 54 Noroeste 0 -- -- 58
2018-01-17 11:00:00 9.8 9 Noroeste 22 Noroeste 0 -- -- 77
2018-01-17 10:00:00 6.1 6 Sudoeste 19 Noroeste 0 -- -- 96
2018-01-17 09:00:00 2.9 5 Sudoeste 13 Sudoeste 0 -- -- 100
2018-01-17 08:00:00 2 5 Sudeste 12 Norte 0 -- -- 100
2018-01-17 07:00:00 1.8 5 Oeste 8 Oeste 0 -- -- 100
2018-01-17 06:00:00 2.1 5 Oeste 9 Oeste 0 -- -- 100
2018-01-17 05:00:00 2.9 3 Oeste 9 Noroeste 0 -- -- 99
2018-01-17 04:00:00 3.2 6 Oeste 10 Noroeste 0 -- -- 100
2018-01-17 03:00:00 3.1 5 Noroeste 8 Noroeste 0 -- -- 100
2018-01-17 02:00:00 3.6 5 Noroeste 9 Nordeste 0 -- -- 98
2018-01-17 01:00:00 4.3 5 Noroeste 10 Oeste 0 -- -- 98
2018-01-17 00:00:00 4.5 5 Oeste 9 Oeste 0 -- -- 99
2018-01-16 23:00:00 5.2 4 Noroeste 9 Oeste 0 -- -- 97
2018-01-16 22:00:00 5.9 5 Oeste 12 Noroeste 0 -- -- 96
2018-01-16 21:00:00 7.1 3 Sudoeste 9 Oeste 0 -- -- 96
2018-01-16 20:00:00 8.7 5 Este 8 Este 0 -- -- 97
2018-01-16 19:00:00 10.1 4 Sudeste 7 Sudeste 0 -- -- 93
2018-01-16 18:00:00 11.8 5 Este 9 Este 0 -- -- 87
2018-01-16 17:00:00 14.3 4 Este 13 Este 0 -- -- 73
2018-01-16 16:00:00 18 6 Sudeste 9 Sudeste 0 -- -- 52
2018-01-16 15:00:00 15.9 4 Este 10 Sudeste 0 -- -- 56
2018-01-16 14:00:00 16 5 Sudeste 10 Este 0 -- -- 60
2018-01-16 13:00:00 14.5 2 Sudeste 6 Sudoeste 0 -- -- 56
2018-01-16 12:00:00 10.6 4 Noroeste 10 Oeste 0 -- -- 71
2018-01-16 11:00:00 7.4 5 Oeste 9 Oeste 0 -- -- 88
2018-01-16 10:00:00 4.1 4 Oeste 8 Noroeste 0 -- -- 100
2018-01-16 09:00:00 1.8 5 Noroeste 8 Noroeste 0 -- -- 100
2018-01-16 08:00:00 1.6 4 Noroeste 6 Noroeste 0 -- -- 100
2018-01-16 07:00:00 2.1 3 Norte 8 Noroeste 0 -- -- 100
2018-01-16 06:00:00 2.4 3 Oeste 6 Oeste 0 -- -- 100
2018-01-16 05:00:00 3.4 4 Oeste 9 Oeste 0 -- -- 99
2018-01-16 04:00:00 4.1 5 Oeste 7 Oeste 0 -- -- 96
2018-01-16 03:00:00 4.9 4 Oeste 8 Sudoeste 0 -- -- 87
2018-01-16 02:00:00 6.7 0 Calma 12 Sudoeste 0 -- -- 81
2018-01-16 01:00:00 7.4 6 Sudoeste 11 Sudoeste 0 -- -- 82
2018-01-16 00:00:00 7.3 0 Calma 9 Sudoeste 0 -- -- 88
2018-01-15 23:00:00 7.6 0 Calma 8 Oeste 0 -- -- 89
2018-01-15 22:00:00 7.5 5 Oeste 9 Oeste 0 -- -- 88
2018-01-15 21:00:00 7.5 5 Sudoeste 9 Oeste 0 -- -- 83
2018-01-15 20:00:00 7.8 4 Este 7 Este 0 -- -- 87
2018-01-15 19:00:00 9.4 4 Sur 17 Sur 0 -- -- 80
2018-01-15 18:00:00 10.8 9 Sur 18 Sur 0 -- -- 73
2018-01-15 17:00:00 11.7 8 Este 21 Este 0 -- -- 84
2018-01-15 16:00:00 11.8 10 Este 26 Este 0 -- -- 78
2018-01-15 15:00:00 13.9 13 Sudeste 25 Sudeste 0 -- -- 66
2018-01-15 14:00:00 14.4 12 Sudeste 20 Este 0 -- -- 58
2018-01-15 13:00:00 14.6 6 Sudeste 14 Sudeste 0 -- -- 59
2018-01-15 12:00:00 12.4 6 Oeste 12 Sudoeste 0 -- -- 63
2018-01-15 11:00:00 10.6 6 Oeste 13 Oeste 0 -- -- 76
2018-01-15 10:00:00 8.9 8 Oeste 14 Oeste 0 -- -- 78
2018-01-15 09:00:00 8.3 8 Noroeste 17 Noroeste 0 -- -- 79
2018-01-15 08:00:00 7.8 8 Noroeste 16 Oeste 0 -- -- 81
2018-01-15 07:00:00 7.3 7 Oeste 14 Oeste 0 -- -- 85
2018-01-15 06:00:00 7.4 7 Oeste 12 Oeste 0 -- -- 86
2018-01-15 05:00:00 8.1 4 Noroeste 13 Noroeste 0 -- -- 82
2018-01-15 04:00:00 8 6 Noroeste 9 Norte 0 -- -- 84
2018-01-15 03:00:00 8 4 Oeste 10 Noroeste 0 -- -- 84
2018-01-15 02:00:00 8.4 5 Noroeste 13 Oeste 0 -- -- 83
2018-01-15 01:00:00 8.7 3 Oeste 13 Noroeste 0 -- -- 82
2018-01-15 00:00:00 8.7 6 Noroeste 12 Noroeste 0 -- -- 80
2018-01-14 23:00:00 8.5 7 Oeste 17 Oeste 0 -- -- 82
2018-01-14 22:00:00 9.3 6 Noroeste 19 Noroeste 0 -- -- 76
2018-01-14 21:00:00 8.6 6 Noroeste 13 Noroeste 0 -- -- 81
2018-01-14 20:00:00 8 6 Oeste 12 Oeste 0 -- -- 88
2018-01-14 19:00:00 8.8 5 Oeste 11 Oeste 0 -- -- 88
2018-01-14 18:00:00 9.2 5 Norte 15 Norte 0 -- -- 88
2018-01-14 17:00:00 9.9 11 Norte 22 Norte 0 -- -- 84
2018-01-14 16:00:00 10.1 10 Norte 24 Norte 0 -- -- 81
2018-01-14 15:00:00 10.5 13 Norte 24 Norte 0 -- -- 76
2018-01-14 14:00:00 10.6 10 Norte 19 Nordeste 0 -- -- 75
2018-01-14 13:00:00 10.2 10 Norte 20 Norte 0 -- -- 83
2018-01-14 12:00:00 9.8 11 Norte 19 Norte 0 -- -- 87
2018-01-14 11:00:00 9.4 3 Norte 10 Nordeste 0 -- -- 97
2018-01-14 10:00:00 8.2 6 Noroeste 11 Noroeste 0 -- -- 100
2018-01-14 09:00:00 7.6 3 Noroeste 9 Noroeste 0 -- -- 100
2018-01-14 08:00:00 7.7 5 Noroeste 9 Norte 0 -- -- 100
2018-01-14 07:00:00 7.7 5 Norte 9 Norte 0.6 -- -- 100
2018-01-14 06:00:00 7.8 3 Sudoeste 11 Sur 0 -- -- 100
2018-01-14 05:00:00 8.6 2 Sur 7 Sudoeste 0.2 -- -- 100
2018-01-14 04:00:00 9 0 Calma 5 Noroeste 0.2 -- -- 100
2018-01-14 03:00:00 9.3 3 Noroeste 9 Sudeste 0.8 -- -- 100
2018-01-14 02:00:00 9.5 8 Sudeste 18 Sudeste 4.2 -- -- 100
2018-01-14 01:00:00 9.6 5 Sur 14 Sur 2.2 -- -- 98
2018-01-14 00:00:00 9.9 4 Oeste 9 Noroeste 0 -- -- 94
2018-01-13 23:00:00 10.2 7 Sudeste 14 Sur 0 -- -- 89
2018-01-13 22:00:00 10.5 9 Sur 18 Sudeste 0 -- -- 89
2018-01-13 21:00:00 10.7 10 Sur 19 Sur 0 -- -- 82
2018-01-13 20:00:00 10.9 8 Sur 27 Sur 0 -- -- 77
2018-01-13 19:00:00 11.3 14 Sur 30 Sur 0 -- -- 73
2018-01-13 18:00:00 11.4 14 Sudeste 29 Sur 0 -- -- 71
2018-01-13 17:00:00 11.9 15 Sur 32 Sur 0 -- -- 68
2018-01-13 16:00:00 12.4 16 Sur 31 Sur 0 -- -- 64
2018-01-13 15:00:00 13.3 13 Sur 34 Sudoeste 0 -- -- 57
2018-01-13 14:00:00 13.7 13 Sur 33 Sudoeste 0 -- -- 53
2018-01-13 13:00:00 10.3 4 Sudoeste 10 Sudoeste 0 -- -- 69
2018-01-13 12:00:00 6.7 2 Noroeste 5 Oeste 0 -- -- 78
2018-01-13 11:00:00 3.7 4 Norte 7 Norte 0 -- -- 87
2018-01-13 10:00:00 0.7 4 Norte 8 Noroeste 0 -- -- 97
2018-01-13 09:00:00 -2.1 5 Oeste 8 Oeste 0 -- -- 100
2018-01-13 08:00:00 -2.2 4 Noroeste 6 Noroeste 0 -- -- 100
2018-01-13 07:00:00 -1.9 5 Noroeste 6 Noroeste 0 -- -- 100
2018-01-13 06:00:00 -1.9 4 Norte 8 Oeste 0 -- -- 99
2018-01-13 05:00:00 -1.3 4 Sudoeste 7 Oeste 0 -- -- 97
2018-01-13 04:00:00 -0.5 5 Oeste 8 Oeste 0 -- -- 97
2018-01-13 03:00:00 -0.4 0 Calma 3 Sudoeste 0 -- -- 96
2018-01-13 02:00:00 0.6 0 Calma 5 Noroeste 0 -- -- 94
2018-01-13 01:00:00 2.1 4 Oeste 11 Oeste 0 -- -- 87
2018-01-13 00:00:00 3.1 8 Oeste 14 Oeste 0 -- -- 85
2018-01-12 23:00:00 3.7 7 Oeste 12 Oeste 0 -- -- 83
2018-01-12 22:00:00 4.7 6 Oeste 10 Oeste 0 -- -- 78
2018-01-12 21:00:00 6.7 5 Noroeste 17 Oeste 0 -- -- 69
2018-01-12 20:00:00 6.7 6 Noroeste 12 Norte 0 -- -- 68
2018-01-12 19:00:00 8.2 8 Norte 14 Norte 0 -- -- 61
2018-01-12 18:00:00 10.4 10 Norte 32 Noroeste 0 -- -- 52
2018-01-12 17:00:00 12.3 18 Noroeste 36 Noroeste 0 -- -- 45
2018-01-12 16:00:00 13.3 23 Noroeste 38 Noroeste 0 -- -- 43
2018-01-12 15:00:00 13.8 24 Noroeste 42 Norte 0 -- -- 43
2018-01-12 14:00:00 14 21 Noroeste 44 Norte 0 -- -- 41
2018-01-12 13:00:00 13.6 22 Noroeste 40 Noroeste 0 -- -- 43
2018-01-12 12:00:00 12.9 23 Noroeste 41 Noroeste 0 -- -- 45
2018-01-12 11:00:00 11.8 24 Noroeste 41 Noroeste 0 -- -- 47
2018-01-12 10:00:00 10.8 23 Noroeste 43 Noroeste 0 -- -- 50
2018-01-12 09:00:00 9.4 25 Noroeste 49 Norte 0 -- -- 59
2018-01-12 08:00:00 9.1 24 Noroeste 42 Noroeste 0 -- -- 61
2018-01-12 07:00:00 9 17 Noroeste 43 Norte 0 -- -- 61
2018-01-12 06:00:00 8.6 19 Noroeste 30 Noroeste 0 -- -- 64
2018-01-12 05:00:00 9.4 19 Noroeste 38 Norte 0 -- -- 58
2018-01-12 04:00:00 9.1 17 Noroeste 41 Noroeste 0 -- -- 60
2018-01-12 03:00:00 9.3 24 Noroeste 39 Noroeste 0 -- -- 59
2018-01-12 02:00:00 8.5 15 Noroeste 30 Noroeste 0 -- -- 64
2018-01-12 01:00:00 9.1 14 Noroeste 35 Noroeste 0 -- -- 62
2018-01-12 00:00:00 9.3 24 Noroeste 41 Noroeste 0 -- -- 61
2018-01-11 23:00:00 9.4 25 Noroeste 43 Noroeste 0 -- -- 62
2018-01-11 22:00:00 9.2 18 Noroeste 37 Norte 0 -- -- 62
2018-01-11 21:00:00 9.3 13 Noroeste 35 Noroeste 0 -- -- 63
2018-01-11 20:00:00 9.8 24 Noroeste 40 Norte 0 -- -- 59
2018-01-11 19:00:00 10 23 Norte 36 Noroeste 0 -- -- 60
2018-01-11 18:00:00 10.7 18 Noroeste 45 Noroeste 0 -- -- 54
2018-01-11 17:00:00 11.5 25 Noroeste 44 Norte 0 -- -- 52
2018-01-11 16:00:00 12.2 23 Noroeste 45 Norte 0 -- -- 51
2018-01-11 15:00:00 12.2 26 Noroeste 50 Norte 0 -- -- 52
2018-01-11 14:00:00 12.7 26 Noroeste 44 Noroeste 0 -- -- 52
2018-01-11 13:00:00 12.5 21 Norte 41 Noroeste 0 -- -- 53
2018-01-11 12:00:00 12.2 18 Norte 39 Noroeste 0 -- -- 54
2018-01-11 11:00:00 11.4 15 Noroeste 31 Noroeste 0 -- -- 54
2018-01-11 10:00:00 8.4 4 Sudoeste 15 Oeste 0 -- -- 80
2018-01-11 09:00:00 9 8 Oeste 21 Noroeste 0 -- -- 73
2018-01-11 08:00:00 9.6 8 Noroeste 21 Noroeste 0 -- -- 61
2018-01-11 07:00:00 8.9 5 Oeste 15 Noroeste 0 -- -- 65
2018-01-11 06:00:00 10 12 Noroeste 27 Noroeste 0 -- -- 59
2018-01-11 05:00:00 9.8 10 Noroeste 27 Norte 0 -- -- 66
2018-01-11 04:00:00 10 17 Noroeste 40 Norte 0 -- -- 65
2018-01-11 03:00:00 9.4 26 Norte 46 Norte 0 -- -- 71
2018-01-11 02:00:00 8.6 19 Noroeste 42 Noroeste 0 -- -- 80
2018-01-11 01:00:00 5.6 8 Noroeste 17 Oeste 0 -- -- 93
2018-01-11 00:00:00 5 5 Noroeste 12 Noroeste 0 -- -- 93
2018-01-10 23:00:00 4.8 5 Oeste 11 Noroeste 0 -- -- 94
2018-01-10 22:00:00 5 6 Oeste 9 Noroeste 0 -- -- 92
2018-01-10 21:00:00 5.8 5 Noroeste 9 Noroeste 0 -- -- 89
2018-01-10 20:00:00 6.8 5 Oeste 9 Oeste 0 -- -- 93
2018-01-10 19:00:00 7.8 7 Sudeste 11 Este 0 -- -- 93
2018-01-10 18:00:00 9.5 4 Sudeste 10 Sudeste 0 -- -- 80
2018-01-10 17:00:00 12.2 8 Sudeste 12 Sudeste 0 -- -- 67
2018-01-10 16:00:00 15.3 6 Sudeste 10 Sudeste 0 -- -- 50
2018-01-10 15:00:00 15.2 5 Este 10 Este 0 -- -- 52
2018-01-10 14:00:00 14.4 3 Sur 10 Oeste 0 -- -- 50
2018-01-10 13:00:00 11.7 3 Noroeste 6 Noroeste 0 -- -- 59
2018-01-10 12:00:00 8.2 3 Norte 6 Noroeste 0 -- -- 80
2018-01-10 11:00:00 6.7 4 Oeste 10 Oeste 0 -- -- 79
2018-01-10 10:00:00 4.2 4 Noroeste 6 Norte 0 -- -- 92
2018-01-10 09:00:00 3 4 Norte 8 Sudoeste 0 -- -- 92
2018-01-10 08:00:00 3.3 5 Sudoeste 8 Oeste 0 -- -- 91
2018-01-10 07:00:00 3 3 Noroeste 5 Noroeste 0 -- -- 95
2018-01-10 06:00:00 2.6 0 Calma 9 Nordeste 0 -- -- 95
2018-01-10 05:00:00 3.1 4 Oeste 15 Sudoeste 0 -- -- 91
2018-01-10 04:00:00 3.7 3 Noroeste 9 Oeste 0 -- -- 85
2018-01-10 03:00:00 5.3 5 Oeste 11 Noroeste 0 -- -- 78
2018-01-10 02:00:00 7 2 Sur 6 Sur 0 -- -- 70
2018-01-10 01:00:00 8.9 3 Sur 13 Sur 0 -- -- 58
2018-01-10 00:00:00 8.2 5 Sur 12 Sur 0 -- -- 60
2018-01-09 23:00:00 8.1 4 Sudoeste 17 Sur 0 -- -- 57
2018-01-09 22:00:00 8.4 4 Sur 19 Sur 0 -- -- 60
2018-01-09 21:00:00 9.4 12 Sur 25 Sur 0 -- -- 55
2018-01-09 20:00:00 10 14 Sur 32 Sur 0 -- -- 54
2018-01-09 19:00:00 10 14 Sur 35 Sudoeste 0 -- -- 58
2018-01-09 18:00:00 11.2 17 Sur 34 Sur 0 -- -- 54
2018-01-09 17:00:00 12.8 11 Sur 30 Sudoeste 0 -- -- 48
2018-01-09 16:00:00 15.3 14 Sudoeste 34 Sudoeste 0 -- -- 43
2018-01-09 15:00:00 15.5 13 Sur 30 Sur 0 -- -- 40
2018-01-09 14:00:00 14.7 12 Sur 31 Sudoeste 0 -- -- 43
2018-01-09 13:00:00 13.5 12 Sudoeste 24 Sudoeste 0 -- -- 47
2018-01-09 12:00:00 10.4 4 Sudoeste 17 Sudoeste 0 -- -- 66
2018-01-09 11:00:00 8.8 4 Sur 10 Sudoeste 0 -- -- 84
2018-01-09 10:00:00 5.4 4 Sudoeste 9 Sudoeste 0 -- -- 100
2018-01-09 09:00:00 3.5 2 Sudoeste 6 Oeste 0 -- -- 100
2018-01-09 08:00:00 4.1 5 Oeste 9 Sudoeste 0 -- -- 100
2018-01-09 07:00:00 4.9 3 Sudoeste 6 Oeste 0 -- -- 100
2018-01-09 06:00:00 6.3 0 Calma 4 Noroeste 0 -- -- 100
2018-01-09 05:00:00 6.9 0 Calma 6 Noroeste 0 -- -- 100
2018-01-09 04:00:00 7.2 4 Oeste 7 Sudoeste 0 -- -- 100
2018-01-09 03:00:00 7.4 0 Calma 3 Noroeste 0 -- -- 99
2018-01-09 02:00:00 7.8 3 Noroeste 5 Nordeste 0 -- -- 98
2018-01-09 01:00:00 8 4 Norte 5 Norte 0 -- -- 97
2018-01-09 00:00:00 8.2 3 Nordeste 5 Nordeste 0 -- -- 95
2018-01-08 23:00:00 9 3 Sudoeste 10 Sudoeste 0 -- -- 91
2018-01-08 22:00:00 8.7 4 Norte 10 Noroeste 0 -- -- 93
2018-01-08 21:00:00 8.2 5 Oeste 10 Sudoeste 0 -- -- 96
2018-01-08 20:00:00 8.7 4 Oeste 15 Noroeste 0 -- -- 92
2018-01-08 19:00:00 9.7 7 Noroeste 19 Noroeste 0 -- -- 88
2018-01-08 18:00:00 10.1 14 Norte 33 Norte 0 -- -- 91
2018-01-08 17:00:00 11.1 13 Norte 27 Norte 0 -- -- 85
2018-01-08 16:00:00 11.5 15 Norte 31 Norte 0 -- -- 85
2018-01-08 15:00:00 12.7 12 Norte 29 Norte 0 -- -- 84
2018-01-08 14:00:00 12 10 Norte 21 Norte 0 -- -- 89
2018-01-08 13:00:00 9.6 0 Calma 6 Oeste 0 -- -- 100
2018-01-08 12:00:00 7.9 0 Calma 6 Oeste 0 -- -- 100
2018-01-08 11:00:00 6.7 3 Oeste 7 Sudoeste 0 -- -- 100
2018-01-08 10:00:00 5.2 0 Calma 12 Sudoeste 0 -- -- 100
2018-01-08 09:00:00 4.1 6 Sudoeste 10 Sudoeste 0 -- -- 100
2018-01-08 08:00:00 3.5 0 Calma 5 Oeste 0 -- -- 100
2018-01-08 07:00:00 3.4 4 Oeste 10 Oeste 0 -- -- 100
2018-01-08 06:00:00 3.7 7 Oeste 11 Oeste 0.2 -- -- 100
2018-01-08 05:00:00 4.1 3 Noroeste 9 Sudoeste 0 -- -- 100
2018-01-08 04:00:00 4.8 5 Sudoeste 8 Sudoeste 0 -- -- 100
2018-01-08 03:00:00 5.7 5 Noroeste 9 Noroeste 0 -- -- 100
2018-01-08 02:00:00 5.7 3 Noroeste 9 Noroeste 0 -- -- 100
2018-01-08 01:00:00 6.4 3 Oeste 6 Sur 0 -- -- 100
2018-01-08 00:00:00 7.1 4 Sudeste 11 Sur 0 -- -- 100
2018-01-07 23:00:00 8.3 6 Sudeste 13 Sudeste 0 -- -- 100
2018-01-07 22:00:00 9 5 Sudeste 19 Sudeste 0 -- -- 100
2018-01-07 21:00:00 10.1 4 Sur 18 Sudeste 1.4 -- -- 100
2018-01-07 20:00:00 10.9 15 Sudeste 50 Sudeste 4 -- -- 99
2018-01-07 19:00:00 11.4 5 Sudeste 53 Sudeste 1.6 -- -- 97
2018-01-07 18:00:00 11.9 7 Este 18 Sudoeste 0.4 -- -- 100
2018-01-07 17:00:00 11.3 4 Oeste 10 Oeste 2.2 -- -- 98
2018-01-07 16:00:00 12 3 Noroeste 17 Sudoeste 1.6 -- -- 96
2018-01-07 15:00:00 13.6 7 Sur 22 Este 0 -- -- 94
2018-01-07 14:00:00 13.9 10 Este 26 Este 0.2 -- -- 100
2018-01-07 13:00:00 13.6 15 Este 26 Este 0.4 -- -- 99
2018-01-07 12:00:00 14 8 Sudeste 19 Este 0 -- -- 94
2018-01-07 11:00:00 13.8 4 Este 15 Este 0 -- -- 95
2018-01-07 10:00:00 13.7 8 Sudeste 24 Sudeste 0 -- -- 95
2018-01-07 09:00:00 13.1 11 Sudeste 23 Sudeste 0 -- -- 100
2018-01-07 08:00:00 13.2 11 Este 19 Sudeste 0 -- -- 100
2018-01-07 07:00:00 13.3 11 Sudeste 23 Sudeste 0 -- -- 99
2018-01-07 06:00:00 13.4 12 Este 27 Este 0 -- -- 98
2018-01-07 05:00:00 13.6 14 Este 35 Este 0 -- -- 97
2018-01-07 04:00:00 13.6 16 Este 31 Este 0 -- -- 97
2018-01-07 03:00:00 13.5 17 Este 37 Este 0 -- -- 97
2018-01-07 02:00:00 13.4 17 Este 37 Este 0 -- -- 97
2018-01-07 01:00:00 13.2 18 Este 39 Este 0 -- -- 96
2018-01-07 00:00:00 13.6 19 Este 38 Este 0 -- -- 95
2018-01-06 23:00:00 13.7 17 Este 39 Este 0 -- -- 94
2018-01-06 22:00:00 13.6 19 Este 39 Este 0 -- -- 93
2018-01-06 21:00:00 13.5 18 Este 35 Este 0 -- -- 95
2018-01-06 20:00:00 13.4 15 Este 31 Este 0 -- -- 97
2018-01-06 19:00:00 13.4 14 Este 26 Este 0 -- -- 98
2018-01-06 18:00:00 13.4 12 Este 24 Este 0 -- -- 98
2018-01-06 17:00:00 13.7 10 Este 19 Este 0 -- -- 97
2018-01-06 16:00:00 13.8 5 Este 14 Este 0 -- -- 96
2018-01-06 15:00:00 13.6 5 Este 10 Este 0 -- -- 88
2018-01-06 14:00:00 12.7 2 Sudeste 5 Este 0 -- -- 88
2018-01-06 13:00:00 10.6 2 Noroeste 9 Noroeste 0 -- -- 92
2018-01-06 12:00:00 8.8 4 Noroeste 9 Oeste 0 -- -- 100
2018-01-06 11:00:00 7.7 4 Oeste 9 Noroeste 0 -- -- 100
2018-01-06 10:00:00 7 5 Noroeste 9 Noroeste 0 -- -- 100
2018-01-06 09:00:00 6.9 4 Oeste 9 Noroeste 0 -- -- 100
2018-01-06 08:00:00 6.8 3 Sudoeste 6 Sudoeste 0 -- -- 100
2018-01-06 07:00:00 6.7 2 Oeste 7 Noroeste 0 -- -- 100
2018-01-06 06:00:00 6.4 0 Calma 6 Oeste 0 -- -- 100
2018-01-06 05:00:00 6.2 2 Sudoeste 9 Oeste 0 -- -- 100
2018-01-06 04:00:00 5.9 5 Oeste 9 Oeste 0 -- -- 100
2018-01-06 03:00:00 5.3 5 Oeste 9 Oeste 0 -- -- 100
2018-01-06 02:00:00 4.1 4 Noroeste 9 Sudoeste 0 -- -- 100
2018-01-06 01:00:00 4.6 3 Sur 7 Sur 0 -- -- 100
2018-01-06 00:00:00 4.8 0 Calma 7 Sudoeste 0 -- -- 100
2018-01-05 23:00:00 5.4 3 Sudoeste 8 Oeste 0 -- -- 98
2018-01-05 22:00:00 6.7 4 Oeste 8 Oeste 0 -- -- 98
2018-01-05 21:00:00 7.8 6 Oeste 8 Noroeste 0 -- -- 99
2018-01-05 20:00:00 9.1 2 Nordeste 5 Norte 0 -- -- 96
2018-01-05 19:00:00 10.7 0 Calma 9 Sudeste 0 -- -- 93
2018-01-05 18:00:00 12.8 4 Sudeste 9 Sudeste 0 -- -- 77
2018-01-05 17:00:00 16.1 6 Sudeste 8 Este 0 -- -- 69
2018-01-05 16:00:00 18.7 3 Nordeste 7 Este 0 -- -- 57
2018-01-05 15:00:00 18 2 Este 10 Sudeste 0 -- -- 58
2018-01-05 14:00:00 16.8 8 Sudeste 15 Sudeste 0 -- -- 67
2018-01-05 13:00:00 14.9 4 Norte 9 Noroeste 0 -- -- 69
2018-01-05 12:00:00 12.7 3 Norte 9 Norte 0 -- -- 82
2018-01-05 11:00:00 9.7 0 Calma 6 Norte 0 -- -- 96
2018-01-05 10:00:00 6.6 4 Norte 7 Norte 0 -- -- 100
2018-01-05 09:00:00 4 0 Calma 5 Sudoeste 0 -- -- 100
2018-01-05 08:00:00 3.9 4 Noroeste 8 Sudoeste 0 -- -- 100
2018-01-05 07:00:00 4.2 3 Oeste 8 Oeste 0 -- -- 100
2018-01-05 06:00:00 4.9 5 Oeste 8 Oeste 0 -- -- 100
2018-01-05 05:00:00 5.2 3 Norte 7 Norte 0 -- -- 100
2018-01-05 04:00:00 5.3 4 Norte 7 Sudoeste 0 -- -- 100
2018-01-05 03:00:00 6.4 3 Oeste 10 Sudoeste 0 -- -- 100
2018-01-05 02:00:00 7.1 4 Sudoeste 9 Oeste 0 -- -- 100
2018-01-05 01:00:00 7.7 5 Oeste 8 Noroeste 0 -- -- 98
2018-01-05 00:00:00 8.6 6 Oeste 9 Noroeste 0 -- -- 95
2018-01-04 23:00:00 10.5 2 Noroeste 12 Sudoeste 0 -- -- 92
2018-01-04 22:00:00 10.7 4 Noroeste 7 Noroeste 0 -- -- 96
2018-01-04 21:00:00 10.4 5 Noroeste 9 Noroeste 0 -- -- 97
2018-01-04 20:00:00 10.9 0 Calma 7 Este 0 -- -- 96
2018-01-04 19:00:00 11.8 4 Este 8 Sudeste 0 -- -- 93
2018-01-04 18:00:00 13 5 Este 13 Este 0 -- -- 90
2018-01-04 17:00:00 14.3 5 Este 13 Este 0 -- -- 84
2018-01-04 16:00:00 15.8 7 Sudeste 19 Sudeste 0 -- -- 78
2018-01-04 15:00:00 17.1 9 Este 21 Sudeste 0 -- -- 74
2018-01-04 14:00:00 17.6 13 Sudeste 23 Este 0 -- -- 71
2018-01-04 13:00:00 19.6 5 Oeste 13 Sudoeste 0 -- -- 56
2018-01-04 12:00:00 15.4 4 Oeste 10 Norte 0 -- -- 73
2018-01-04 11:00:00 11 3 Noroeste 8 Noroeste 0 -- -- 90
2018-01-04 10:00:00 7.7 0 Calma 10 Sudoeste 0 -- -- 99
2018-01-04 09:00:00 5.8 5 Sudoeste 9 Sudoeste 0 -- -- 100
2018-01-04 08:00:00 5.8 6 Sudoeste 10 Sudoeste 0 -- -- 100
2018-01-04 07:00:00 6 3 Sudoeste 8 Sudoeste 0 -- -- 98
2018-01-04 06:00:00 7.1 4 Oeste 8 Oeste 0 -- -- 98
2018-01-04 05:00:00 7.6 5 Oeste 11 Oeste 0 -- -- 98
2018-01-04 04:00:00 7.3 4 Noroeste 9 Noroeste 0 -- -- 96
2018-01-04 03:00:00 7.4 6 Sudoeste 9 Sudoeste 0 -- -- 96
2018-01-04 02:00:00 8 5 Noroeste 9 Oeste 0 -- -- 96
2018-01-04 01:00:00 8.3 5 Oeste 9 Sudoeste 0 -- -- 94
2018-01-04 00:00:00 9.5 3 Nordeste 8 Norte 0 -- -- 92
2018-01-03 23:00:00 10.7 5 Oeste 9 Oeste 0 -- -- 90
2018-01-03 22:00:00 10.5 5 Oeste 10 Sudoeste 0 -- -- 91
2018-01-03 21:00:00 10.8 4 Norte 10 Norte 0 -- -- 89
2018-01-03 20:00:00 11.6 3 Noroeste 9 Noroeste 0 -- -- 87
2018-01-03 19:00:00 13 4 Sur 17 Sudeste 0 -- -- 83
2018-01-03 18:00:00 13.4 4 Nordeste 22 Sudeste 0 -- -- 85
2018-01-03 17:00:00 14.5 8 Este 18 Este 0 -- -- 81
2018-01-03 16:00:00 15.8 10 Este 21 Sudeste 0 -- -- 78
2018-01-03 15:00:00 17.7 6 Sudeste 13 Sudeste 0 -- -- 64
2018-01-03 14:00:00 17.9 6 Sudeste 14 Sur 0 -- -- 60
2018-01-03 13:00:00 15.2 4 Sudeste 13 Oeste 0 -- -- 66
2018-01-03 12:00:00 12.5 6 Sudoeste 13 Oeste 0 -- -- 77
2018-01-03 11:00:00 9.5 3 Noroeste 16 Noroeste 0 -- -- 92
2018-01-03 10:00:00 6.7 3 Sudoeste 13 Norte 0 -- -- 99
2018-01-03 09:00:00 5.4 3 Oeste 21 Norte 0 -- -- 99
2018-01-03 08:00:00 4.7 3 Sudoeste 8 Sudoeste 0 -- -- 100
2018-01-03 07:00:00 4.8 4 Norte 10 Norte 0 -- -- 98
2018-01-03 06:00:00 5.2 5 Norte 10 Oeste 0 -- -- 98
2018-01-03 05:00:00 5.5 7 Sudoeste 11 Sudoeste 0 -- -- 98
2018-01-03 04:00:00 5.9 4 Oeste 10 Norte 0 -- -- 97
2018-01-03 03:00:00 5.8 3 Norte 9 Norte 0 -- -- 97
2018-01-03 02:00:00 6.2 4 Norte 12 Oeste 0 -- -- 95
2018-01-03 01:00:00 6.4 7 Oeste 13 Oeste 0 -- -- 96
2018-01-03 00:00:00 7 5 Oeste 11 Noroeste 0 -- -- 96
2018-01-02 23:00:00 6.7 3 Oeste 8 Norte 0 -- -- 96
2018-01-02 22:00:00 7.1 4 Noroeste 12 Norte 0 -- -- 93
2018-01-02 21:00:00 8.5 5 Oeste 8 Sudoeste 0 -- -- 92
2018-01-02 20:00:00 8.4 4 Noroeste 7 Norte 0 -- -- 97
2018-01-02 19:00:00 9.1 3 Nordeste 5 Sudeste 0 -- -- 91
2018-01-02 18:00:00 10.6 3 Este 7 Sudeste 0 -- -- 89
2018-01-02 17:00:00 12.5 4 Este 15 Sudeste 0 -- -- 79
2018-01-02 16:00:00 14.4 6 Este 11 Este 0 -- -- 66
2018-01-02 15:00:00 13.7 4 Este 10 Nordeste 0 -- -- 68
2018-01-02 14:00:00 12.8 4 Norte 9 Oeste 0 -- -- 71
2018-01-02 13:00:00 11.6 3 Oeste 10 Noroeste 0 -- -- 77
2018-01-02 12:00:00 9.8 2 Oeste 7 Noroeste 0 -- -- 83
2018-01-02 11:00:00 8.5 4 Norte 11 Noroeste 0 -- -- 84
2018-01-02 10:00:00 5.9 6 Noroeste 13 Oeste 0 -- -- 92
2018-01-02 09:00:00 3.4 5 Oeste 12 Oeste 0 -- -- 96
2018-01-02 08:00:00 3.4 7 Oeste 12 Sudoeste 0 -- -- 95
2018-01-02 07:00:00 4 7 Oeste 13 Sur 0 -- -- 92
2018-01-02 06:00:00 5.1 3 Norte 13 Norte 0 -- -- 90
2018-01-02 05:00:00 5.9 7 Noroeste 22 Oeste 0 -- -- 86
2018-01-02 04:00:00 8.2 8 Oeste 31 Oeste 0 -- -- 78
2018-01-02 03:00:00 10 17 Norte 40 Noroeste 0 -- -- 73
2018-01-02 02:00:00 9.9 17 Noroeste 28 Noroeste 0 -- -- 76
2018-01-02 01:00:00 10.3 12 Oeste 41 Noroeste 0 -- -- 73
2018-01-02 00:00:00 9.8 28 Norte 62 Norte 0 -- -- 77
2018-01-01 23:00:00 10.5 40 Norte 56 Noroeste 0 -- -- 74
2018-01-01 22:00:00 7.3 7 Noroeste 11 Norte 0 -- -- 94
2018-01-01 21:00:00 8.5 5 Noroeste 10 Oeste 0 -- -- 91
2018-01-01 20:00:00 9.8 6 Oeste 33 Norte 0.6 -- -- 89
2018-01-01 19:00:00 12.3 19 Norte 33 Norte 0 -- -- 70
2018-01-01 18:00:00 12.4 7 Sudoeste 18 Sudoeste 0 -- -- 47
2018-01-01 17:00:00 14 9 Sudoeste 22 Sudoeste 0 -- -- 43
2018-01-01 16:00:00 15.2 14 Oeste 37 Oeste 0 -- -- 39
2018-01-01 15:00:00 16.7 10 Sudoeste 25 Sudoeste 0 -- -- 38
2018-01-01 14:00:00 15.4 13 Sudeste 26 Sudeste 0 -- -- 59
2018-01-01 13:00:00 15.8 10 Sudeste 17 Sudeste 0 -- -- 65
2018-01-01 12:00:00 14.3 9 Sudeste 18 Sudeste 0 -- -- 72
2018-01-01 11:00:00 12.2 5 Sudeste 12 Sur 0 -- -- 71
2018-01-01 10:00:00 8.6 6 Sudoeste 10 Oeste 0 -- -- 82
2018-01-01 09:00:00 7.3 5 Sudoeste 19 Sudoeste 0 -- -- 80
2018-01-01 08:00:00 8.9 10 Oeste 23 Oeste 0 -- -- 67
2018-01-01 07:00:00 9.6 9 Oeste 22 Noroeste 0 -- -- 56
2018-01-01 06:00:00 11.3 10 Noroeste 31 Noroeste 0 -- -- 50
2018-01-01 05:00:00 12.8 18 Noroeste 31 Noroeste 0 -- -- 40
2018-01-01 04:00:00 11.5 6 Oeste 26 Noroeste 0.2 -- -- 72
2018-01-01 03:00:00 13.4 18 Noroeste 33 Noroeste 0 -- -- 42
2018-01-01 02:00:00 12.8 15 Norte 39 Norte 0 -- -- 54
2018-01-01 01:00:00 14.2 21 Noroeste 41 Noroeste 0 -- -- 45
2018-01-01 00:00:00 13.9 19 Noroeste 40 Noroeste 0 -- -- 49
2017-12-31 23:00:00 13 23 Norte 41 Norte 0 -- -- 56
2017-12-31 22:00:00 10.6 5 Oeste 14 Sur 0 -- -- 84
2017-12-31 21:00:00 10.6 7 Sudoeste 16 Sudoeste 0 -- -- 83
2017-12-31 20:00:00 11.6 2 Este 13 Norte 0 -- -- 80
2017-12-31 19:00:00 13.5 10 Norte 21 Norte 0 -- -- 75
2017-12-31 18:00:00 16 4 Sudoeste 27 Sudoeste 0 -- -- 53
2017-12-31 17:00:00 19.1 12 Sudoeste 36 Sudoeste 0 -- -- 35
2017-12-31 16:00:00 20.8 12 Sur 34 Sudoeste 0 -- -- 33
2017-12-31 15:00:00 21.4 9 Sur 26 Sur 0 -- -- 41
2017-12-31 14:00:00 19.1 10 Sur 29 Sur 0 -- -- 48
2017-12-31 13:00:00 13.3 5 Noroeste 13 Oeste 0 -- -- 74
2017-12-31 12:00:00 11.1 4 Noroeste 7 Noroeste 0 -- -- 82
2017-12-31 11:00:00 7.2 2 Norte 8 Noroeste 0 -- -- 100
2017-12-31 10:00:00 3.5 4 Oeste 6 Oeste 0 -- -- 100
2017-12-31 09:00:00 2.2 3 Norte 9 Norte 0 -- -- 100
2017-12-31 08:00:00 2.1 0 Calma 7 Sudoeste 0 -- -- 100
2017-12-31 07:00:00 2.3 4 Sudoeste 5 Sudoeste 0 -- -- 100
2017-12-31 06:00:00 2.9 0 Calma 7 Oeste 0 -- -- 100
2017-12-31 05:00:00 3.6 5 Oeste 10 Oeste 0 -- -- 100
2017-12-31 04:00:00 3.8 5 Oeste 8 Oeste 0 -- -- 100
2017-12-31 03:00:00 4.2 6 Oeste 9 Oeste 0 -- -- 100
2017-12-31 02:00:00 4.2 5 Oeste 9 Oeste 0 -- -- 100
2017-12-31 01:00:00 4.6 5 Oeste 10 Oeste 0 -- -- 98